Time;durP1;ratioP1;P1;durP2;ratioP2;P2;SDS_P1;SDS_P2;PMS_P1;PMS_P2;Temp;Humidity;BMP_temperature;BMP_pressure;BME280_temperature;BME280_humidity;BME280_pressure;Samples;Min_cycle;Max_cycle;Signal;HPM_P1;HPM_P2
2022/04/16 00:00:27;;;;;;;4.13;2.35;;;;;;;22.05;52.46;99929.19;5026624;28;20029;-91
2022/04/16 00:02:54;;;;;;;3.85;2.47;;;;;;;22.03;52.64;99931.09;5027045;28;20075;-90
2022/04/16 00:05:20;;;;;;;3.53;2.20;;;;;;;22.02;52.70;99930.22;5025759;28;20029;-89
2022/04/16 00:08:06;;;;;;;3.78;2.05;;;;;;;22.03;52.41;99925.78;5026145;28;20456;-90
2022/04/16 00:10:37;;;;;;;4.20;2.47;;;;;;;22.01;52.69;99923.19;5042623;28;20106;-89
2022/04/16 00:13:04;;;;;;;3.65;2.20;;;;;;;22.02;52.65;99921.41;5026177;28;20044;-89
2022/04/16 00:15:29;;;;;;;3.97;2.17;;;;;;;21.99;52.41;99923.28;5026738;28;20108;-89
2022/04/16 00:17:56;;;;;;;3.75;2.70;;;;;;;22.00;52.58;99914.34;5044398;28;20048;-90
2022/04/16 00:20:27;;;;;;;4.18;2.15;;;;;;;21.98;52.58;99916.25;5010808;28;20132;-90
2022/04/16 00:22:53;;;;;;;4.47;2.33;;;;;;;21.97;52.58;99911.91;5027736;28;20394;-89
2022/04/16 00:25:19;;;;;;;4.22;2.45;;;;;;;21.98;52.56;99910.06;5043382;28;20025;-88
2022/04/16 00:27:49;;;;;;;3.55;1.90;;;;;;;21.97;52.66;99906.59;5026480;28;20036;-90
2022/04/16 00:30:17;;;;;;;3.97;2.40;;;;;;;21.97;52.44;99909.25;5025732;28;20045;-90
2022/04/16 00:32:44;;;;;;;4.15;2.25;;;;;;;21.95;52.64;99905.81;5043517;28;20033;-90
2022/04/16 00:35:10;;;;;;;4.05;2.30;;;;;;;21.96;52.51;99909.31;5025481;28;20025;-91
2022/04/16 00:37:37;;;;;;;4.18;2.10;;;;;;;21.95;52.51;99899.66;5043145;28;20033;-91
2022/04/16 00:40:03;;;;;;;3.83;2.30;;;;;;;21.94;52.41;99898.78;5027220;28;20044;-89
2022/04/16 00:42:39;;;;;;;4.82;2.67;;;;;;;21.94;52.35;99904.09;5043598;28;20029;-90
2022/04/16 00:45:06;;;;;;;5.33;2.40;;;;;;;21.93;52.62;99907.69;5026535;28;20025;-90
2022/04/16 00:47:31;;;;;;;3.55;2.22;;;;;;;21.93;52.42;99891.75;5026693;28;20025;-90
2022/04/16 00:49:57;;;;;;;4.10;2.50;;;;;;;21.93;52.58;99891.75;5042969;28;20358;-91
2022/04/16 00:52:23;;;;;;;4.05;2.05;;;;;;;21.91;52.49;99896.31;5027237;28;20036;-91
2022/04/16 00:54:51;;;;;;;3.72;2.10;;;;;;;21.92;52.57;99892.72;5023148;28;20029;-89
2022/04/16 00:57:18;;;;;;;4.30;2.38;;;;;;;21.90;52.51;99891.94;5020727;28;20029;-89
2022/04/16 00:59:44;;;;;;;5.00;2.35;;;;;;;21.90;52.61;99891.09;5021170;28;20033;-89
2022/04/16 01:02:10;;;;;;;4.07;2.60;;;;;;;21.90;52.63;99885.78;5039821;28;20029;-90
2022/04/16 01:04:36;;;;;;;3.58;2.35;;;;;;;21.89;52.46;99879.59;5023266;28;20477;-88
2022/04/16 01:07:01;;;;;;;4.78;2.40;;;;;;;21.88;52.41;99882.34;5020999;28;20061;-89
2022/04/16 01:09:27;;;;;;;3.97;2.30;;;;;;;21.87;52.61;99881.50;5039090;28;20047;-90
2022/04/16 01:11:52;;;;;;;5.57;2.70;;;;;;;21.88;52.54;99883.19;5042329;28;20422;-90
2022/04/16 01:14:21;;;;;;;3.72;1.90;;;;;;;21.87;52.63;99884.16;5025315;28;20029;-91
2022/04/16 01:16:47;;;;;;;3.70;2.35;;;;;;;21.86;52.45;99879.78;5038943;28;20474;-90
2022/04/16 01:19:14;;;;;;;3.72;2.10;;;;;;;21.86;52.41;99874.47;5036951;28;20029;-89
2022/04/16 01:21:39;;;;;;;3.40;2.15;;;;;;;21.84;52.67;99876.38;5036381;28;20463;-89
2022/04/16 01:24:05;;;;;;;3.88;2.10;;;;;;;21.85;52.38;99872.75;5036485;28;20048;-89
2022/04/16 01:26:34;;;;;;;4.50;2.67;;;;;;;21.84;52.39;99877.22;5039345;28;20029;-89
2022/04/16 01:28:59;;;;;;;4.10;2.47;;;;;;;21.84;52.52;99873.72;5038447;28;20106;-91
2022/04/16 01:31:25;;;;;;;3.70;2.60;;;;;;;21.84;52.40;99876.38;5038905;28;20052;-90
2022/04/16 01:33:50;;;;;;;3.70;2.10;;;;;;;21.82;52.35;99863.16;5038552;28;20068;-88
2022/04/16 01:36:16;;;;;;;3.95;2.45;;;;;;;21.83;52.49;99871.97;5038169;28;20474;-89
2022/04/16 01:38:41;;;;;;;3.33;2.10;;;;;;;21.82;52.27;99870.28;5038694;28;20029;-88
2022/04/16 01:41:07;;;;;;;3.67;2.45;;;;;;;21.81;52.25;99872.09;5037129;28;20025;-90
2022/04/16 01:43:32;;;;;;;4.60;2.40;;;;;;;21.82;52.36;99867.63;5036338;28;20025;-89
2022/04/16 01:45:58;;;;;;;4.65;2.47;;;;;;;21.81;52.60;99860.59;5036232;28;20033;-88
2022/04/16 01:48:27;;;;;;;3.85;2.33;;;;;;;21.80;52.39;99865.03;5036098;28;20375;-88
2022/04/16 01:50:54;;;;;;;3.35;2.17;;;;;;;21.79;52.31;99859.84;5035589;28;20120;-89
2022/04/16 01:53:20;;;;;;;3.13;2.20;;;;;;;21.79;52.44;99863.34;5035691;28;20474;-89
2022/04/16 01:55:45;;;;;;;3.60;2.20;;;;;;;21.77;52.38;99859.91;5036327;28;20048;-89
2022/04/16 01:58:11;;;;;;;3.22;1.90;;;;;;;21.79;52.34;99851.88;5035506;28;20033;-91
2022/04/16 02:00:37;;;;;;;3.60;2.28;;;;;;;21.78;52.60;99858.13;5035312;28;20048;-89
2022/04/16 02:03:02;;;;;;;3.88;2.00;;;;;;;21.77;52.58;99861.72;5034496;28;20371;-89
2022/04/16 02:05:28;;;;;;;2.95;1.90;;;;;;;21.76;52.51;99862.66;5034458;28;20115;-89
2022/04/16 02:07:54;;;;;;;4.70;2.08;;;;;;;21.76;52.61;99857.34;5017704;28;20387;-89
2022/04/16 02:10:21;;;;;;;2.92;2.15;;;;;;;21.76;52.59;99857.34;5020211;28;20119;-88
2022/04/16 02:12:46;;;;;;;4.70;2.50;;;;;;;21.76;52.28;99857.34;5018149;28;20463;-88
2022/04/16 02:15:12;;;;;;;2.78;2.10;;;;;;;21.75;52.26;99861.81;5034977;28;20029;-89
2022/04/16 02:17:39;;;;;;;3.63;2.38;;;;;;;21.73;52.26;99864.56;5035221;28;20060;-89
2022/04/16 02:20:06;;;;;;;2.85;2.25;;;;;;;21.73;52.44;99864.56;5036111;28;20086;-89
2022/04/16 02:22:58;;;;;;;3.55;1.95;;;;;;;21.73;52.53;99859.25;5035871;28;20033;-90
2022/04/16 02:25:24;;;;;;;3.13;2.00;;;;;;;21.73;52.36;99859.25;5032532;28;20033;-90
2022/04/16 02:27:50;;;;;;;3.40;2.38;;;;;;;21.72;52.57;99860.19;5018860;28;20375;-89
2022/04/16 02:30:17;;;;;;;3.00;2.05;;;;;;;21.73;52.46;99858.38;5019142;28;20099;-88
2022/04/16 02:32:48;;;;;;;4.82;2.10;;;;;;;21.69;52.31;99857.66;5018971;28;20028;-89
2022/04/16 02:35:15;;;;;;;3.38;2.00;;;;;;;21.69;52.43;99862.97;5039724;28;20030;-90
2022/04/16 02:37:42;;;;;;;3.05;1.83;;;;;;;21.70;52.65;99859.41;5039474;28;20055;-89
2022/04/16 02:40:09;;;;;;;3.60;2.03;;;;;;;21.70;52.51;99859.41;5021437;28;20093;-89
2022/04/16 02:42:39;;;;;;;3.35;2.25;;;;;;;21.67;52.50;99854.25;5019607;28;20022;-90
2022/04/16 02:47:52;;;;;;;3.92;2.17;;;;;;;21.68;52.39;99855.97;5036812;28;20041;-89
2022/04/16 02:50:25;;;;;;;3.47;2.03;;;;;;;21.69;52.31;99852.34;5035638;28;20052;-89
2022/04/16 02:52:55;;;;;;;2.83;1.90;;;;;;;21.66;52.39;99847.25;5022110;28;20080;-90
2022/04/16 02:55:22;;;;;;;3.50;2.17;;;;;;;21.64;52.47;99846.47;5041518;28;20029;-90
2022/04/16 02:57:51;;;;;;;2.63;1.85;;;;;;;21.65;52.28;99848.16;5040943;28;20047;-89
2022/04/16 03:00:19;;;;;;;3.40;2.20;;;;;;;21.65;52.52;99845.50;5040237;28;20033;-89
2022/04/16 03:02:46;;;;;;;3.55;2.00;;;;;;;21.65;52.41;99844.66;5039900;28;20021;-89
2022/04/16 03:05:11;;;;;;;3.15;2.10;;;;;;;21.65;52.49;99848.16;5042817;28;20375;-90
2022/04/16 03:07:38;;;;;;;2.92;1.77;;;;;;;21.66;52.15;99841.06;5039236;28;20052;-88
2022/04/16 03:10:04;;;;;;;3.80;2.30;;;;;;;21.64;52.25;99843.81;5022817;28;20048;-90
2022/04/16 03:12:55;;;;;;;3.90;2.03;;;;;;;21.63;52.41;99842.09;5022481;28;20036;-89
2022/04/16 03:18:07;;;;;;;3.28;2.22;;;;;;;21.63;52.16;99847.41;5040743;28;20433;-89
2022/04/16 03:20:33;;;;;;;3.30;2.20;;;;;;;21.64;52.28;99850.94;5022748;28;20091;-89
2022/04/16 03:22:59;;;;;;;4.13;1.80;;;;;;;21.60;52.28;99845.78;5022238;28;20033;-90
2022/04/16 03:25:29;;;;;;;3.42;1.83;;;;;;;21.62;52.03;99847.47;5038721;28;20032;-90
2022/04/16 03:27:56;;;;;;;3.88;2.20;;;;;;;21.59;52.39;99845.84;5038094;28;20029;-91
2022/04/16 03:30:23;;;;;;;3.88;1.85;;;;;;;21.59;52.30;99845.84;5037525;28;20112;-89
2022/04/16 03:32:50;;;;;;;3.92;2.00;;;;;;;21.60;52.08;99837.81;5039213;28;20025;-90
2022/04/16 03:35:18;;;;;;;3.47;2.10;;;;;;;21.59;52.28;99840.56;5039067;28;20024;-90
2022/04/16 03:37:44;;;;;;;3.38;2.08;;;;;;;21.60;52.42;99837.81;5023194;28;20028;-90
2022/04/16 03:40:10;;;;;;;3.45;1.92;;;;;;;21.60;52.21;99842.28;5028633;28;20045;-90
2022/04/16 03:42:48;;;;;;;3.72;2.20;;;;;;;21.58;52.26;99839.72;5045006;28;20041;-89
2022/04/16 03:45:23;;;;;;;3.40;2.03;;;;;;;21.58;52.18;99837.06;5040672;28;20407;-91
2022/04/16 03:47:49;;;;;;;4.20;2.10;;;;;;;21.57;52.34;99831.81;5025370;28;20025;-90
2022/04/16 03:50:19;;;;;;;2.92;1.77;;;;;;;21.55;52.27;99834.56;5041990;28;20055;-90
2022/04/16 03:52:46;;;;;;;3.80;2.20;;;;;;;21.56;52.33;99835.44;5043654;28;20033;-90
2022/04/16 04:00:49;;;;;;;2.67;1.77;;;;;;;21.53;52.22;99835.59;5041728;28;20129;-90
2022/04/16 04:03:15;;;;;;;5.40;2.40;;;;;;;21.53;52.42;99840.91;5039685;28;20117;-90
2022/04/16 04:05:42;;;;;;;2.85;1.75;;;;;;;21.53;52.27;99843.56;5039805;28;20030;-89
2022/04/16 04:08:09;;;;;;;3.25;1.90;;;;;;;21.52;52.23;99833.88;5040079;28;20041;-89
2022/04/16 04:10:37;;;;;;;3.03;1.98;;;;;;;21.52;52.17;99840.06;5041125;28;20032;-89
2022/04/16 04:13:03;;;;;;;3.30;2.13;;;;;;;21.52;52.33;99844.50;5039107;28;20044;-90
2022/04/16 04:15:31;;;;;;;3.08;2.00;;;;;;;21.51;51.96;99837.50;5023529;28;20022;-89
2022/04/16 04:18:00;;;;;;;3.13;1.70;;;;;;;21.50;52.03;99835.78;5037738;28;20021;-89
2022/04/16 04:20:27;;;;;;;3.00;1.83;;;;;;;21.49;52.22;99842.03;5038300;28;20037;-89
2022/04/16 04:22:52;;;;;;;2.90;2.00;;;;;;;21.50;52.08;99846.41;5038402;28;20029;-89
2022/04/16 04:25:18;;;;;;;3.05;1.90;;;;;;;21.48;52.31;99845.63;5038581;28;20434;-90
2022/04/16 04:27:44;;;;;;;2.53;1.70;;;;;;;21.48;52.20;99835.88;5021006;28;20029;-89
2022/04/16 04:30:11;;;;;;;2.97;1.90;;;;;;;21.48;51.98;99848.28;5037548;28;20025;-89
2022/04/16 04:32:37;;;;;;;3.28;2.10;;;;;;;21.49;52.10;99855.31;5022266;28;20104;-90
2022/04/16 04:35:07;;;;;;;2.63;1.77;;;;;;;21.45;52.35;99850.16;5040423;28;20057;-90
2022/04/16 04:37:32;;;;;;;2.63;1.77;;;;;;;21.45;52.21;99855.47;5041063;28;20032;-90
2022/04/16 04:39:58;;;;;;;3.25;1.88;;;;;;;21.46;52.18;99851.03;5039834;28;20026;-89
2022/04/16 04:42:26;;;;;;;3.13;2.10;;;;;;;21.44;52.07;99853.78;5038214;28;20336;-90
2022/04/16 04:44:52;;;;;;;3.08;2.08;;;;;;;21.43;52.07;99852.06;5038180;28;20119;-88
2022/04/16 04:47:17;;;;;;;2.88;1.83;;;;;;;21.43;52.25;99862.69;5037978;28;20053;-89
2022/04/16 04:49:43;;;;;;;2.95;1.90;;;;;;;21.44;52.14;99869.69;5039731;28;20036;-89
2022/04/16 04:52:08;;;;;;;3.15;1.95;;;;;;;21.43;52.09;99864.47;5038407;28;20443;-90
2022/04/16 04:54:34;;;;;;;3.15;1.90;;;;;;;21.42;52.15;99868.94;5040851;28;20034;-91
2022/04/16 04:56:59;;;;;;;3.83;2.08;;;;;;;21.40;52.12;99862.00;5036489;28;20084;-91
2022/04/16 04:59:25;;;;;;;3.67;2.20;;;;;;;21.38;52.05;99870.06;5035955;28;20136;-90
2022/04/16 05:01:51;;;;;;;2.90;1.80;;;;;;;21.37;51.93;99878.97;5020403;28;20044;-90
2022/04/16 05:04:16;;;;;;;2.95;1.80;;;;;;;21.35;52.14;99882.66;5038356;28;20036;-90
2022/04/16 05:06:42;;;;;;;2.78;2.08;;;;;;;21.34;52.27;99884.44;5038654;28;20072;-90
2022/04/16 05:09:10;;;;;;;2.90;2.10;;;;;;;21.34;51.98;99884.44;5021498;28;20029;-89
2022/04/16 05:11:36;;;;;;;4.13;1.75;;;;;;;21.31;52.11;99887.28;5021863;28;20044;-90
2022/04/16 05:14:01;;;;;;;2.88;1.80;;;;;;;21.31;52.28;99888.09;5039719;28;20120;-91
2022/04/16 05:16:27;;;;;;;3.20;1.95;;;;;;;21.32;52.15;99891.63;5021025;28;20061;-89
2022/04/16 05:18:53;;;;;;;5.53;2.22;;;;;;;21.32;52.08;99886.31;5020939;28;20112;-89
2022/04/16 05:21:18;;;;;;;2.88;2.10;;;;;;;21.31;52.02;99889.94;5022985;28;20075;-90
2022/04/16 05:23:44;;;;;;;3.75;2.22;;;;;;;21.29;52.17;99891.78;5022983;28;20029;-91
2022/04/16 05:26:10;;;;;;;3.65;2.15;;;;;;;21.30;52.03;99899.69;5023282;28;20040;-90
2022/04/16 05:28:37;;;;;;;2.83;2.00;;;;;;;21.30;52.05;99898.81;5023576;28;20475;-90
2022/04/16 05:31:04;;;;;;;3.08;1.88;;;;;;;21.28;52.33;99906.00;5022344;28;20044;-90
2022/04/16 05:36:15;;;;;;;2.50;1.90;;;;;;;21.28;51.91;99913.97;5038786;28;20616;-89
2022/04/16 05:38:40;;;;;;;3.17;2.10;;;;;;;21.28;51.98;99916.63;5020308;28;20033;-90
2022/04/16 05:41:06;;;;;;;3.08;1.95;;;;;;;21.27;52.11;99909.59;5037833;28;20482;-89
2022/04/16 05:43:31;;;;;;;3.45;2.00;;;;;;;21.30;52.11;99914.72;5020338;28;20033;-90
2022/04/16 05:45:57;;;;;;;2.78;2.00;;;;;;;21.28;52.05;99922.81;5020982;28;20033;-91
2022/04/16 05:48:22;;;;;;;3.13;1.88;;;;;;;21.27;51.84;99920.22;5021465;28;20029;-90
2022/04/16 05:50:48;;;;;;;3.20;1.88;;;;;;;21.26;51.93;99929.97;5040448;28;20474;-90
2022/04/16 05:53:15;;;;;;;3.83;2.15;;;;;;;21.27;52.08;99930.84;5038471;28;20025;-90
2022/04/16 05:55:46;;;;;;;3.80;2.33;;;;;;;21.27;52.00;99930.84;5028331;28;20020;-89
2022/04/16 05:58:12;;;;;;;3.58;2.15;;;;;;;21.26;51.94;99929.13;5063117;28;20119;-90
2022/04/16 06:00:39;;;;;;;3.63;1.95;;;;;;;21.26;51.95;99939.75;5063436;28;20051;-91
2022/04/16 06:03:05;;;;;;;3.78;2.20;;;;;;;21.26;51.99;99937.94;5044239;28;20063;-89
2022/04/16 06:05:34;;;;;;;4.22;2.22;;;;;;;21.25;52.04;99938.03;5059865;28;20033;-90
2022/04/16 06:08:00;;;;;;;3.58;2.22;;;;;;;21.26;51.87;99945.06;5060170;28;20047;-88
2022/04/16 06:10:26;;;;;;;3.20;1.88;;;;;;;21.27;51.85;99946.75;5060380;28;20032;-89
2022/04/16 06:12:52;;;;;;;3.85;2.25;;;;;;;21.25;52.02;99946.84;5061662;28;20040;-90
2022/04/16 06:15:18;;;;;;;3.60;2.17;;;;;;;21.24;51.89;99961.06;5061868;28;20032;-88
2022/04/16 06:17:44;;;;;;;2.70;1.60;;;;;;;21.22;51.87;99962.94;5060093;28;20025;-88
2022/04/16 06:20:11;;;;;;;3.30;2.00;;;;;;;21.24;51.76;99958.41;5060794;28;20024;-89
2022/04/16 06:22:37;;;;;;;3.38;1.90;;;;;;;21.24;51.92;99962.84;5060207;28;20031;-89
2022/04/16 06:25:03;;;;;;;2.50;1.90;;;;;;;21.26;51.86;99960.97;5058159;28;20123;-88
2022/04/16 06:27:28;;;;;;;2.72;1.83;;;;;;;21.25;51.78;99961.94;5058416;28;20468;-89
2022/04/16 06:29:54;;;;;;;3.05;1.80;;;;;;;21.26;51.75;99960.97;5059066;28;20039;-89
2022/04/16 06:32:20;;;;;;;2.53;1.65;;;;;;;21.24;51.80;99962.84;5061983;28;20024;-90
2022/04/16 06:34:45;;;;;;;4.22;1.90;;;;;;;21.23;51.84;99961.13;5051868;28;20051;-89
2022/04/16 06:37:11;;;;;;;4.22;2.30;;;;;;;21.22;51.80;99964.72;5039993;28;20499;-88
2022/04/16 06:39:37;;;;;;;2.70;1.88;;;;;;;21.20;51.63;99956.84;5039822;28;20020;-90
2022/04/16 06:42:03;;;;;;;3.30;2.10;;;;;;;21.18;51.80;99964.91;5034785;28;20037;-89
2022/04/16 06:44:29;;;;;;;2.58;1.77;;;;;;;21.19;51.80;99961.31;5038410;28;20069;-91
2022/04/16 06:46:55;;;;;;;3.42;2.08;;;;;;;21.21;51.77;99968.34;5034804;28;20052;-88
2022/04/16 06:49:21;;;;;;;3.53;1.92;;;;;;;21.18;51.87;99964.91;5027332;28;20025;-88
2022/04/16 06:51:46;;;;;;;3.00;2.00;;;;;;;21.18;51.75;99964.91;5029649;28;20378;-89
2022/04/16 06:54:12;;;;;;;3.08;2.05;;;;;;;21.16;51.74;99966.78;5027236;28;20033;-90
2022/04/16 06:56:38;;;;;;;2.55;1.73;;;;;;;21.18;51.67;99972.88;5022551;28;20086;-90
2022/04/16 06:59:04;;;;;;;3.00;2.00;;;;;;;21.18;51.84;99970.22;5045292;28;20466;-90
2022/04/16 07:01:29;;;;;;;2.70;1.90;;;;;;;21.18;51.67;99972.88;5046907;28;20044;-90
2022/04/16 07:03:57;;;;;;;3.00;2.00;;;;;;;21.15;51.82;99970.38;5070842;28;20475;-94
2022/04/16 07:06:23;;;;;;;2.75;2.00;;;;;;;21.16;51.88;99969.44;5062642;28;20064;-89
2022/04/16 07:08:48;;;;;;;3.35;1.98;;;;;;;21.17;52.35;99967.63;5037866;28;20025;-90
2022/04/16 07:11:14;;;;;;;8.80;3.47;;;;;;;21.17;52.59;99963.19;5039012;28;20029;-90
2022/04/16 07:13:40;;;;;;;7.35;3.03;;;;;;;21.13;52.95;99974.91;5039094;28;20037;-88
2022/04/16 07:16:05;;;;;;;5.15;2.70;;;;;;;21.07;52.90;99964.63;5041697;28;20127;-90
2022/04/16 07:18:31;;;;;;;7.53;3.33;;;;;;;21.04;52.79;99964.78;5027190;28;20040;-91
2022/04/16 07:20:57;;;;;;;6.03;4.07;;;;;;;21.03;52.72;99971.03;5045501;28;20037;-91
2022/04/16 07:23:22;;;;;;;5.65;3.67;;;;;;;21.02;52.64;99979.94;5044660;28;20036;-89
2022/04/16 07:25:49;;;;;;;5.65;3.80;;;;;;;21.01;52.48;99983.53;5046222;28;20032;-90
2022/04/16 07:28:21;;;;;;;8.00;4.50;;;;;;;20.96;52.47;99974.97;5064892;28;20021;-89
2022/04/16 07:30:53;;;;;;;7.10;4.28;;;;;;;20.96;52.01;99985.56;5050925;28;20036;-91
2022/04/16 07:33:20;;;;;;;7.45;4.80;;;;;;;20.92;52.06;99983.06;5047239;28;20036;-86
2022/04/16 07:35:45;;;;;;;7.68;4.45;;;;;;;20.90;52.16;99982.28;5046743;28;20025;-91
2022/04/16 07:38:11;;;;;;;6.60;4.43;;;;;;;20.89;52.18;99985.88;5052218;28;20059;-92
2022/04/16 07:40:37;;;;;;;10.45;4.45;;;;;;;20.86;52.43;99980.72;5078645;28;20036;-92
2022/04/16 07:43:06;;;;;;;5.50;3.40;;;;;;;20.87;52.37;99982.44;5063228;28;20040;-91
2022/04/16 07:45:33;;;;;;;7.43;4.57;;;;;;;20.86;52.60;99991.34;5032512;28;20029;-90
2022/04/16 07:48:04;;;;;;;8.55;5.05;;;;;;;20.84;52.20;99987.88;5073224;28;20025;-91
2022/04/16 07:50:42;;;;;;;9.38;5.10;;;;;;;20.82;52.02;99995.03;5077463;28;20032;-92
2022/04/16 07:53:07;;;;;;;7.75;4.93;;;;;;;20.80;51.91;99986.31;5060770;28;20089;-93
2022/04/16 07:55:36;;;;;;;8.75;4.90;;;;;;;20.78;51.82;99988.22;5045200;28;20021;-92
2022/04/16 07:58:05;;;;;;;7.07;4.90;;;;;;;20.74;51.96;99989.28;5062016;28;20033;-90
2022/04/16 08:00:38;;;;;;;5.75;4.43;;;;;;;20.72;51.53;99993.84;5056633;28;20067;-91
2022/04/16 08:03:20;;;;;;;6.93;5.38;;;;;;;20.73;51.41;99990.25;5060779;28;20049;-91
2022/04/16 08:05:56;;;;;;;7.82;5.43;;;;;;;20.68;51.53;99992.25;5036605;28;20056;-91
2022/04/16 08:26:38;;;;;;;6.82;5.10;;;;;;;20.51;51.34;100001.94;5070149;28;20063;-93
2022/04/16 08:29:07;;;;;;;5.90;4.70;;;;;;;20.50;51.37;99994.91;5047455;28;20091;-91
2022/04/16 08:31:44;;;;;;;7.85;4.80;;;;;;;20.48;51.57;100002.09;5048539;28;20057;-92
2022/04/16 08:34:13;;;;;;;7.57;5.80;;;;;;;20.49;51.64;99998.50;5018863;28;20036;-91
2022/04/16 08:36:38;;;;;;;32.70;20.20;;;;;;;20.48;51.57;99996.81;5019099;28;20276;-90
2022/04/16 08:39:06;;;;;;;17.70;11.60;;;;;;;20.42;51.50;100003.25;5018121;28;20040;-93
2022/04/16 08:41:40;;;;;;;16.58;7.03;;;;;;;20.37;51.62;99998.19;5017893;28;20010;-93
2022/04/16 08:44:14;;;;;;;14.32;6.07;;;;;;;20.37;51.60;99995.53;5020906;28;20044;-92
2022/04/16 08:46:56;;;;;;;12.02;5.90;;;;;;;20.37;51.76;99994.66;5032533;28;20090;-93
2022/04/16 08:49:29;;;;;;;14.45;6.30;;;;;;;20.39;51.87;99998.97;5015806;28;20026;-93
2022/04/16 08:52:04;;;;;;;10.80;5.65;;;;;;;20.38;51.78;100002.56;5015682;28;20069;-94
2022/04/16 08:54:32;;;;;;;16.08;6.43;;;;;;;20.39;51.81;100004.25;5016893;28;20041;-95
2022/04/16 08:56:59;;;;;;;14.00;5.40;;;;;;;20.38;51.88;99999.03;5034565;28;20032;-91
2022/04/16 08:59:24;;;;;;;10.98;4.63;;;;;;;20.38;52.07;100007.84;5016580;28;20085;-90
2022/04/16 09:05:56;;;;;;;10.60;5.97;;;;;;;20.39;52.07;99998.97;5033705;28;20048;-92
2022/04/16 09:08:45;;;;;;;8.10;4.95;;;;;;;20.42;52.15;100002.38;5015516;28;20198;-93
2022/04/16 09:18:06;;;;;;;7.57;5.03;;;;;;;20.41;51.88;100000.66;5028670;28;20084;-94
2022/04/16 09:20:41;;;;;;;7.75;5.45;;;;;;;20.33;51.34;99996.63;5011174;28;20053;-94
2022/04/16 09:23:22;;;;;;;7.75;5.13;;;;;;;20.33;51.62;99993.13;5014013;28;20060;-94
2022/04/16 09:25:51;;;;;;;7.80;4.88;;;;;;;20.34;51.42;99990.38;5042599;28;20441;-93
2022/04/16 09:28:21;;;;;;;7.50;4.82;;;;;;;20.36;51.98;99985.88;5034294;28;20068;-94
2022/04/16 09:30:56;;;;;;;8.25;5.20;;;;;;;20.36;51.93;99988.53;5036054;28;20387;-94
2022/04/16 09:33:22;;;;;;;7.55;4.65;;;;;;;20.37;51.95;99995.53;5034173;28;20037;-93
2022/04/16 09:35:55;;;;;;;7.80;4.75;;;;;;;20.39;52.08;99991.00;5036106;28;20436;-94
2022/04/16 09:38:30;;;;;;;6.78;4.70;;;;;;;20.40;52.02;99989.22;5037411;28;20085;-93
2022/04/16 09:41:08;;;;;;;8.05;5.43;;;;;;;20.39;51.95;99987.53;5036231;28;20032;-93
2022/04/16 09:43:36;;;;;;;8.20;5.63;;;;;;;20.38;51.62;99986.66;5053504;28;20075;-94
2022/04/16 09:46:14;;;;;;;7.25;4.55;;;;;;;20.38;51.84;99991.94;5036587;28;20037;-92
2022/04/16 09:48:42;;;;;;;6.95;4.57;;;;;;;20.39;51.92;99988.34;5021842;28;20021;-94
2022/04/16 09:51:09;;;;;;;8.82;5.38;;;;;;;20.38;51.63;99986.66;5037190;28;20018;-94
2022/04/16 09:53:37;;;;;;;6.95;5.00;;;;;;;20.33;51.62;99987.81;5020834;28;20013;-93
2022/04/16 09:56:10;;;;;;;7.70;4.93;;;;;;;20.31;51.28;99982.59;5037573;28;20026;-94
2022/04/16 09:58:40;;;;;;;9.43;5.20;;;;;;;20.33;51.32;99978.06;5038735;28;20025;-94
2022/04/16 10:01:10;;;;;;;7.45;5.50;;;;;;;20.28;51.76;99977.44;5021240;28;20010;-94
2022/04/16 10:03:39;;;;;;;7.47;5.78;;;;;;;20.23;51.40;99971.50;5022171;28;20041;-94
2022/04/16 10:06:09;;;;;;;6.88;4.53;;;;;;;20.27;51.62;99967.78;5006211;28;20026;-94
2022/04/16 10:08:36;;;;;;;7.00;5.25;;;;;;;20.20;51.38;99976.97;5022024;28;20028;-93
2022/04/16 10:11:08;;;;;;;7.28;5.30;;;;;;;20.18;51.56;99968.22;5021521;28;20021;-93
2022/04/16 10:13:44;;;;;;;8.25;5.13;;;;;;;20.14;51.91;99971.97;5021187;28;20089;-90
2022/04/16 10:16:16;;;;;;;7.28;4.88;;;;;;;20.12;51.80;99964.09;5032548;28;20085;-91
2022/04/16 10:18:44;;;;;;;7.50;5.53;;;;;;;20.08;51.54;99963.41;4997428;28;20029;-93
2022/04/16 10:21:16;;;;;;;6.78;4.80;;;;;;;20.07;51.91;99958.16;5015112;28;20057;-93
2022/04/16 10:23:42;;;;;;;7.90;5.25;;;;;;;20.03;52.10;99960.09;5015975;28;20026;-94
2022/04/16 10:26:15;;;;;;;7.57;5.18;;;;;;;20.02;52.10;99949.59;5014084;28;20053;-94
2022/04/16 10:28:57;;;;;;;7.40;4.70;;;;;;;20.01;52.36;99951.38;5014878;28;20037;-92
2022/04/16 10:31:29;;;;;;;8.35;5.15;;;;;;;20.03;52.12;99949.50;5019377;28;20614;-94
2022/04/16 10:33:58;;;;;;;6.47;4.50;;;;;;;20.05;52.29;99947.63;5018503;28;20045;-93
2022/04/16 10:36:28;;;;;;;7.28;4.22;;;;;;;20.06;52.18;99936.13;5018213;28;20029;-93
2022/04/16 10:38:55;;;;;;;7.53;4.30;;;;;;;20.07;52.23;99939.63;5033622;28;20073;-93
2022/04/16 10:41:21;;;;;;;7.22;4.40;;;;;;;20.10;52.61;99932.38;5016778;28;20010;-93
2022/04/16 10:44:01;;;;;;;5.90;4.05;;;;;;;20.11;52.67;99923.47;5015531;28;20017;-93
2022/04/16 10:46:46;;;;;;;5.55;3.47;;;;;;;20.15;52.58;99921.56;5015854;28;20030;-93
2022/04/16 10:49:13;;;;;;;6.60;4.20;;;;;;;20.20;52.41;99914.22;5033456;28;20037;-92
2022/04/16 10:51:39;;;;;;;5.35;3.95;;;;;;;20.24;52.59;99914.94;5013025;28;20018;-93
2022/04/16 10:54:12;;;;;;;6.45;3.70;;;;;;;20.26;52.46;99913.06;4997298;28;20034;-95
2022/04/16 10:56:44;;;;;;;7.03;4.05;;;;;;;20.30;52.59;99916.41;5023359;28;20052;-95
2022/04/16 10:59:11;;;;;;;5.28;3.40;;;;;;;20.31;52.58;99905.75;5031865;28;20052;-93
2022/04/16 11:01:53;;;;;;;5.97;3.53;;;;;;;20.35;52.37;99907.28;5047432;28;20033;-92
2022/04/16 11:04:37;;;;;;;8.93;3.60;;;;;;;20.38;52.47;99912.44;5049053;28;20112;-95
2022/04/16 11:07:04;;;;;;;7.90;3.78;;;;;;;20.42;52.43;99914.91;5032251;28;20044;-92
2022/04/16 11:09:35;;;;;;;8.85;3.28;;;;;;;20.44;52.47;99910.41;5032982;28;20496;-93
2022/04/16 11:12:16;;;;;;;4.68;3.20;;;;;;;20.46;52.54;99904.09;5033824;28;20080;-95
2022/04/16 11:14:45;;;;;;;8.52;3.60;;;;;;;20.51;52.37;99903.84;5036563;28;20029;-93
2022/04/16 11:17:13;;;;;;;5.95;3.10;;;;;;;20.53;52.14;99894.00;5037660;28;20052;-93
2022/04/16 11:19:39;;;;;;;5.85;3.47;;;;;;;20.59;52.26;99898.97;5035983;28;20035;-90
2022/04/16 11:22:05;;;;;;;6.00;3.17;;;;;;;20.61;52.29;99898.91;5019801;28;20030;-92
2022/04/16 11:24:32;;;;;;;10.60;3.75;;;;;;;20.64;52.14;99894.31;5049031;28;20025;-92
2022/04/16 11:35:33;;;;;;;7.03;3.65;;;;;;;20.74;52.08;99885.88;5056879;28;20370;-94
2022/04/16 11:38:05;;;;;;;5.97;3.83;;;;;;;20.77;52.06;99883.03;5042043;28;20005;-92
2022/04/16 11:40:35;;;;;;;6.90;4.07;;;;;;;20.80;51.85;99880.25;5023198;28;20387;-93
2022/04/16 11:43:01;;;;;;;5.22;3.45;;;;;;;20.81;52.10;99876.63;5040542;28;20025;-94
2022/04/16 11:45:26;;;;;;;7.78;3.63;;;;;;;20.85;52.04;99878.22;5039457;28;20033;-92
2022/04/16 11:47:52;;;;;;;7.43;3.88;;;;;;;20.88;52.08;99871.91;5039376;28;20039;-92
2022/04/16 11:50:19;;;;;;;8.80;4.05;;;;;;;20.89;52.17;99869.19;5038478;28;20025;-92
2022/04/16 11:52:55;;;;;;;8.77;5.38;;;;;;;20.93;52.23;99867.22;5038859;28;20025;-92
2022/04/16 11:55:29;;;;;;;6.88;4.05;;;;;;;20.97;52.03;99870.56;5040345;28;20044;-93
2022/04/16 11:57:57;;;;;;;7.22;4.10;;;;;;;20.98;51.93;99867.81;5040823;28;20081;-91
2022/04/16 12:17:20;;;;;;;5.88;3.92;;;;;;;21.15;52.16;99853.63;5037960;28;20118;-95
2022/04/16 12:20:12;;;;;;;5.45;3.95;;;;;;;21.17;52.14;99853.53;5001109;28;20109;-94
2022/04/16 12:22:52;;;;;;;5.78;3.38;;;;;;;21.17;52.01;99846.41;5031742;28;20089;-93
2022/04/16 12:25:23;;;;;;;8.52;4.22;;;;;;;21.18;51.91;99848.16;4997904;28;20081;-93
2022/04/16 12:28:09;;;;;;;6.07;3.67;;;;;;;21.22;51.86;99850.63;4998562;28;20023;-89
2022/04/16 12:30:49;;;;;;;6.55;3.97;;;;;;;21.22;51.91;99837.34;5008494;28;20065;-94
2022/04/16 12:33:16;;;;;;;6.88;4.03;;;;;;;21.24;51.88;99838.97;5035499;28;20089;-91
2022/04/16 12:35:50;;;;;;;8.75;3.85;;;;;;;21.27;52.06;99837.94;5037563;28;20037;-93
2022/04/16 12:38:17;;;;;;;7.40;4.88;;;;;;;21.29;51.82;99833.41;5038974;28;20094;-92
2022/04/16 12:40:49;;;;;;;9.15;5.18;;;;;;;21.31;51.82;99834.19;5039292;28;20057;-95
2022/04/16 12:46:44;;;;;;;10.05;5.60;;;;;;;21.33;52.00;99819.03;5041029;28;20037;-95
2022/04/16 12:49:33;;;;;;;6.80;4.97;;;;;;;21.36;51.92;99818.00;5035316;28;20106;-93